sensor_id;sensor_type;location;lat;lon;timestamp;P1;durP1;ratioP1;P2;durP2;ratioP2
23060;SDS011;11698;47.690;9.132;2022-12-07T00:00:00;27.50;;;13.95;;
23060;SDS011;11698;47.690;9.132;2022-12-07T00:02:26;25.10;;;13.25;;
23060;SDS011;11698;47.690;9.132;2022-12-07T00:04:52;24.37;;;13.13;;
23060;SDS011;11698;47.690;9.132;2022-12-07T00:07:18;27.40;;;14.03;;
23060;SDS011;11698;47.690;9.132;2022-12-07T00:09:44;21.88;;;12.73;;
23060;SDS011;11698;47.690;9.132;2022-12-07T00:12:10;23.13;;;12.98;;
23060;SDS011;11698;47.690;9.132;2022-12-07T00:14:36;23.73;;;11.52;;
23060;SDS011;11698;47.690;9.132;2022-12-07T00:17:02;24.40;;;12.85;;
23060;SDS011;11698;47.690;9.132;2022-12-07T00:19:28;22.25;;;12.18;;
23060;SDS011;11698;47.690;9.132;2022-12-07T00:21:54;23.13;;;12.40;;
23060;SDS011;11698;47.690;9.132;2022-12-07T00:24:20;21.88;;;12.50;;
23060;SDS011;11698;47.690;9.132;2022-12-07T00:26:46;22.83;;;12.93;;
23060;SDS011;11698;47.690;9.132;2022-12-07T00:29:16;23.50;;;12.38;;
23060;SDS011;11698;47.690;9.132;2022-12-07T00:31:42;22.65;;;11.40;;
23060;SDS011;11698;47.690;9.132;2022-12-07T00:34:12;22.67;;;12.10;;
23060;SDS011;11698;47.690;9.132;2022-12-07T00:36:39;20.05;;;11.07;;
23060;SDS011;11698;47.690;9.132;2022-12-07T00:39:07;24.40;;;12.40;;
23060;SDS011;11698;47.690;9.132;2022-12-07T00:41:33;25.17;;;12.43;;
23060;SDS011;11698;47.690;9.132;2022-12-07T00:44:00;24.20;;;12.48;;
23060;SDS011;11698;47.690;9.132;2022-12-07T00:46:26;25.13;;;13.77;;
23060;SDS011;11698;47.690;9.132;2022-12-07T00:48:52;26.63;;;13.15;;
23060;SDS011;11698;47.690;9.132;2022-12-07T00:51:19;23.33;;;13.03;;
23060;SDS011;11698;47.690;9.132;2022-12-07T00:53:46;26.08;;;13.50;;
23060;SDS011;11698;47.690;9.132;2022-12-07T00:56:13;24.00;;;12.88;;
23060;SDS011;11698;47.690;9.132;2022-12-07T00:58:39;26.58;;;13.55;;
23060;SDS011;11698;47.690;9.132;2022-12-07T01:01:06;20.90;;;11.05;;
23060;SDS011;11698;47.690;9.132;2022-12-07T01:03:33;22.40;;;12.48;;
23060;SDS011;11698;47.690;9.132;2022-12-07T01:05:59;25.08;;;12.88;;
23060;SDS011;11698;47.690;9.132;2022-12-07T01:08:26;26.02;;;13.73;;
23060;SDS011;11698;47.690;9.132;2022-12-07T01:13:24;24.65;;;14.00;;
23060;SDS011;11698;47.690;9.132;2022-12-07T01:15:50;25.05;;;13.48;;
23060;SDS011;11698;47.690;9.132;2022-12-07T01:18:16;24.83;;;13.10;;
23060;SDS011;11698;47.690;9.132;2022-12-07T01:20:42;24.23;;;12.60;;
23060;SDS011;11698;47.690;9.132;2022-12-07T01:23:08;23.63;;;13.05;;
23060;SDS011;11698;47.690;9.132;2022-12-07T01:25:34;24.38;;;12.90;;
23060;SDS011;11698;47.690;9.132;2022-12-07T01:28:00;20.95;;;12.07;;
23060;SDS011;11698;47.690;9.132;2022-12-07T01:30:26;24.58;;;12.40;;
23060;SDS011;11698;47.690;9.132;2022-12-07T01:32:52;22.98;;;13.00;;
23060;SDS011;11698;47.690;9.132;2022-12-07T01:35:18;21.48;;;12.57;;
23060;SDS011;11698;47.690;9.132;2022-12-07T01:37:44;23.98;;;12.32;;
23060;SDS011;11698;47.690;9.132;2022-12-07T01:40:10;22.40;;;12.25;;
23060;SDS011;11698;47.690;9.132;2022-12-07T01:42:36;22.95;;;12.98;;
23060;SDS011;11698;47.690;9.132;2022-12-07T01:47:50;24.17;;;12.93;;
23060;SDS011;11698;47.690;9.132;2022-12-07T01:50:17;20.38;;;11.68;;
23060;SDS011;11698;47.690;9.132;2022-12-07T01:52:45;23.17;;;12.68;;
23060;SDS011;11698;47.690;9.132;2022-12-07T01:55:14;22.00;;;12.50;;
23060;SDS011;11698;47.690;9.132;2022-12-07T01:57:42;22.08;;;11.85;;
23060;SDS011;11698;47.690;9.132;2022-12-07T02:00:09;26.23;;;13.85;;
23060;SDS011;11698;47.690;9.132;2022-12-07T02:02:42;24.83;;;13.03;;
23060;SDS011;11698;47.690;9.132;2022-12-07T02:05:09;24.65;;;12.75;;
23060;SDS011;11698;47.690;9.132;2022-12-07T02:07:37;23.30;;;12.43;;
23060;SDS011;11698;47.690;9.132;2022-12-07T02:12:42;23.10;;;12.93;;
23060;SDS011;11698;47.690;9.132;2022-12-07T02:15:09;23.25;;;12.57;;
23060;SDS011;11698;47.690;9.132;2022-12-07T02:28:31;24.75;;;13.40;;
23060;SDS011;11698;47.690;9.132;2022-12-07T02:30:59;23.27;;;13.48;;
23060;SDS011;11698;47.690;9.132;2022-12-07T02:33:28;26.60;;;13.65;;
23060;SDS011;11698;47.690;9.132;2022-12-07T02:35:59;27.27;;;13.63;;
23060;SDS011;11698;47.690;9.132;2022-12-07T02:38:26;23.92;;;13.20;;
23060;SDS011;11698;47.690;9.132;2022-12-07T02:41:00;25.00;;;13.13;;
23060;SDS011;11698;47.690;9.132;2022-12-07T02:43:35;25.27;;;14.02;;
23060;SDS011;11698;47.690;9.132;2022-12-07T02:46:08;25.02;;;13.95;;
23060;SDS011;11698;47.690;9.132;2022-12-07T02:48:35;28.55;;;14.23;;
23060;SDS011;11698;47.690;9.132;2022-12-07T02:51:03;24.65;;;13.93;;
23060;SDS011;11698;47.690;9.132;2022-12-07T02:55:59;27.55;;;14.57;;
23060;SDS011;11698;47.690;9.132;2022-12-07T02:58:32;27.42;;;14.35;;
23060;SDS011;11698;47.690;9.132;2022-12-07T03:03:26;27.37;;;13.50;;
23060;SDS011;11698;47.690;9.132;2022-12-07T03:06:03;25.50;;;13.35;;
23060;SDS011;11698;47.690;9.132;2022-12-07T03:08:47;25.98;;;13.63;;
23060;SDS011;11698;47.690;9.132;2022-12-07T03:11:18;26.25;;;13.60;;
23060;SDS011;11698;47.690;9.132;2022-12-07T03:14:02;26.98;;;13.63;;
23060;SDS011;11698;47.690;9.132;2022-12-07T03:16:40;29.40;;;14.48;;
23060;SDS011;11698;47.690;9.132;2022-12-07T03:19:10;28.10;;;14.48;;
23060;SDS011;11698;47.690;9.132;2022-12-07T03:21:38;26.98;;;13.98;;
23060;SDS011;11698;47.690;9.132;2022-12-07T03:24:10;27.60;;;14.10;;
23060;SDS011;11698;47.690;9.132;2022-12-07T03:26:41;26.42;;;13.68;;
23060;SDS011;11698;47.690;9.132;2022-12-07T03:29:10;28.40;;;14.40;;
23060;SDS011;11698;47.690;9.132;2022-12-07T03:31:41;26.60;;;14.38;;
23060;SDS011;11698;47.690;9.132;2022-12-07T03:36:49;24.92;;;13.45;;
23060;SDS011;11698;47.690;9.132;2022-12-07T03:41:54;26.80;;;13.85;;
23060;SDS011;11698;47.690;9.132;2022-12-07T03:44:21;25.23;;;13.07;;
23060;SDS011;11698;47.690;9.132;2022-12-07T03:57:15;25.50;;;13.77;;
23060;SDS011;11698;47.690;9.132;2022-12-07T03:59:42;29.08;;;13.85;;
23060;SDS011;11698;47.690;9.132;2022-12-07T04:02:08;28.90;;;14.40;;
23060;SDS011;11698;47.690;9.132;2022-12-07T04:04:36;28.70;;;14.55;;
23060;SDS011;11698;47.690;9.132;2022-12-07T04:07:02;24.73;;;12.95;;
23060;SDS011;11698;47.690;9.132;2022-12-07T04:09:28;27.30;;;13.98;;
23060;SDS011;11698;47.690;9.132;2022-12-07T04:11:54;24.88;;;13.50;;
23060;SDS011;11698;47.690;9.132;2022-12-07T04:14:20;26.88;;;14.55;;
23060;SDS011;11698;47.690;9.132;2022-12-07T04:16:56;25.58;;;13.38;;
23060;SDS011;11698;47.690;9.132;2022-12-07T04:19:23;26.55;;;13.55;;
23060;SDS011;11698;47.690;9.132;2022-12-07T04:21:49;27.45;;;14.48;;
23060;SDS011;11698;47.690;9.132;2022-12-07T04:24:16;26.48;;;14.57;;
23060;SDS011;11698;47.690;9.132;2022-12-07T04:26:42;26.20;;;13.93;;
23060;SDS011;11698;47.690;9.132;2022-12-07T04:29:08;25.35;;;12.75;;
23060;SDS011;11698;47.690;9.132;2022-12-07T04:31:35;25.05;;;13.63;;
23060;SDS011;11698;47.690;9.132;2022-12-07T04:34:01;24.83;;;12.85;;
23060;SDS011;11698;47.690;9.132;2022-12-07T04:36:28;30.13;;;14.63;;
23060;SDS011;11698;47.690;9.132;2022-12-07T04:38:54;29.00;;;14.13;;
23060;SDS011;11698;47.690;9.132;2022-12-07T04:41:20;27.88;;;14.70;;
23060;SDS011;11698;47.690;9.132;2022-12-07T04:43:55;26.83;;;14.10;;
23060;SDS011;11698;47.690;9.132;2022-12-07T04:46:22;28.27;;;14.30;;
23060;SDS011;11698;47.690;9.132;2022-12-07T04:48:49;28.13;;;14.68;;
23060;SDS011;11698;47.690;9.132;2022-12-07T04:51:17;28.17;;;14.55;;
23060;SDS011;11698;47.690;9.132;2022-12-07T04:53:44;27.90;;;13.70;;
23060;SDS011;11698;47.690;9.132;2022-12-07T04:56:10;28.60;;;14.15;;
23060;SDS011;11698;47.690;9.132;2022-12-07T04:58:36;27.95;;;14.05;;
23060;SDS011;11698;47.690;9.132;2022-12-07T05:01:02;29.90;;;15.35;;
23060;SDS011;11698;47.690;9.132;2022-12-07T05:03:28;26.98;;;13.88;;
23060;SDS011;11698;47.690;9.132;2022-12-07T05:05:54;30.30;;;14.50;;
23060;SDS011;11698;47.690;9.132;2022-12-07T05:08:20;29.85;;;15.32;;
23060;SDS011;11698;47.690;9.132;2022-12-07T05:10:48;26.83;;;14.15;;
23060;SDS011;11698;47.690;9.132;2022-12-07T05:13:14;29.08;;;14.52;;
23060;SDS011;11698;47.690;9.132;2022-12-07T05:15:40;31.58;;;14.73;;
23060;SDS011;11698;47.690;9.132;2022-12-07T05:18:07;26.42;;;13.95;;
23060;SDS011;11698;47.690;9.132;2022-12-07T05:20:34;28.23;;;14.52;;
23060;SDS011;11698;47.690;9.132;2022-12-07T05:23:00;31.13;;;14.55;;
23060;SDS011;11698;47.690;9.132;2022-12-07T05:25:26;32.58;;;15.50;;
23060;SDS011;11698;47.690;9.132;2022-12-07T05:27:52;29.05;;;14.82;;
23060;SDS011;11698;47.690;9.132;2022-12-07T05:30:20;28.48;;;14.02;;
23060;SDS011;11698;47.690;9.132;2022-12-07T05:32:46;28.73;;;14.57;;
23060;SDS011;11698;47.690;9.132;2022-12-07T05:35:12;28.42;;;14.70;;
23060;SDS011;11698;47.690;9.132;2022-12-07T05:37:38;30.17;;;15.13;;
23060;SDS011;11698;47.690;9.132;2022-12-07T05:40:04;32.30;;;14.10;;
23060;SDS011;11698;47.690;9.132;2022-12-07T05:42:31;28.83;;;14.30;;
23060;SDS011;11698;47.690;9.132;2022-12-07T05:44:57;31.23;;;14.98;;
23060;SDS011;11698;47.690;9.132;2022-12-07T05:47:23;30.08;;;14.80;;
23060;SDS011;11698;47.690;9.132;2022-12-07T05:49:49;26.98;;;14.38;;
23060;SDS011;11698;47.690;9.132;2022-12-07T05:52:15;28.10;;;13.73;;
23060;SDS011;11698;47.690;9.132;2022-12-07T05:54:41;26.75;;;13.68;;
23060;SDS011;11698;47.690;9.132;2022-12-07T05:57:07;28.83;;;14.18;;
23060;SDS011;11698;47.690;9.132;2022-12-07T05:59:33;29.23;;;14.63;;
23060;SDS011;11698;47.690;9.132;2022-12-07T06:02:00;27.77;;;13.52;;
23060;SDS011;11698;47.690;9.132;2022-12-07T06:04:28;28.70;;;14.20;;
23060;SDS011;11698;47.690;9.132;2022-12-07T06:06:54;28.83;;;14.80;;
23060;SDS011;11698;47.690;9.132;2022-12-07T06:09:21;30.33;;;14.20;;
23060;SDS011;11698;47.690;9.132;2022-12-07T06:11:47;31.25;;;15.45;;
23060;SDS011;11698;47.690;9.132;2022-12-07T06:14:32;28.95;;;15.13;;
23060;SDS011;11698;47.690;9.132;2022-12-07T06:16:59;29.10;;;15.32;;
23060;SDS011;11698;47.690;9.132;2022-12-07T06:19:25;28.17;;;13.55;;
23060;SDS011;11698;47.690;9.132;2022-12-07T06:21:51;30.55;;;15.10;;
23060;SDS011;11698;47.690;9.132;2022-12-07T06:24:17;29.38;;;14.43;;
23060;SDS011;11698;47.690;9.132;2022-12-07T06:26:44;29.08;;;14.80;;
23060;SDS011;11698;47.690;9.132;2022-12-07T06:29:10;31.60;;;15.80;;
23060;SDS011;11698;47.690;9.132;2022-12-07T06:31:36;30.73;;;15.52;;
23060;SDS011;11698;47.690;9.132;2022-12-07T06:34:04;27.67;;;14.10;;
23060;SDS011;11698;47.690;9.132;2022-12-07T06:36:30;28.10;;;14.55;;
23060;SDS011;11698;47.690;9.132;2022-12-07T06:38:56;27.02;;;13.18;;
23060;SDS011;11698;47.690;9.132;2022-12-07T06:41:23;31.25;;;14.57;;
23060;SDS011;11698;47.690;9.132;2022-12-07T06:43:49;32.10;;;15.60;;
23060;SDS011;11698;47.690;9.132;2022-12-07T06:46:16;30.63;;;14.77;;
23060;SDS011;11698;47.690;9.132;2022-12-07T06:48:42;29.98;;;14.60;;
23060;SDS011;11698;47.690;9.132;2022-12-07T06:51:08;30.63;;;14.55;;
23060;SDS011;11698;47.690;9.132;2022-12-07T06:53:35;29.13;;;14.00;;
23060;SDS011;11698;47.690;9.132;2022-12-07T06:56:01;27.73;;;14.15;;
23060;SDS011;11698;47.690;9.132;2022-12-07T06:58:27;29.58;;;14.18;;
23060;SDS011;11698;47.690;9.132;2022-12-07T07:00:53;29.70;;;14.30;;
23060;SDS011;11698;47.690;9.132;2022-12-07T07:03:19;30.45;;;14.18;;
23060;SDS011;11698;47.690;9.132;2022-12-07T07:05:45;28.75;;;13.73;;
23060;SDS011;11698;47.690;9.132;2022-12-07T07:08:11;29.02;;;14.27;;
23060;SDS011;11698;47.690;9.132;2022-12-07T07:10:37;28.30;;;14.15;;
23060;SDS011;11698;47.690;9.132;2022-12-07T07:13:04;29.63;;;13.65;;
23060;SDS011;11698;47.690;9.132;2022-12-07T07:15:30;26.75;;;13.55;;
23060;SDS011;11698;47.690;9.132;2022-12-07T07:17:56;27.38;;;13.55;;
23060;SDS011;11698;47.690;9.132;2022-12-07T07:20:22;30.17;;;14.27;;
23060;SDS011;11698;47.690;9.132;2022-12-07T07:22:48;25.07;;;12.87;;
23060;SDS011;11698;47.690;9.132;2022-12-07T07:25:15;26.70;;;13.40;;
23060;SDS011;11698;47.690;9.132;2022-12-07T07:27:41;27.80;;;13.60;;
23060;SDS011;11698;47.690;9.132;2022-12-07T07:30:07;23.75;;;13.23;;
23060;SDS011;11698;47.690;9.132;2022-12-07T07:32:33;24.90;;;13.53;;
23060;SDS011;11698;47.690;9.132;2022-12-07T07:34:59;25.80;;;13.88;;
23060;SDS011;11698;47.690;9.132;2022-12-07T07:37:26;27.05;;;13.25;;
23060;SDS011;11698;47.690;9.132;2022-12-07T07:39:52;26.25;;;13.65;;
23060;SDS011;11698;47.690;9.132;2022-12-07T07:42:18;26.10;;;12.98;;
23060;SDS011;11698;47.690;9.132;2022-12-07T07:44:44;27.33;;;13.05;;
23060;SDS011;11698;47.690;9.132;2022-12-07T07:47:10;24.95;;;12.95;;
23060;SDS011;11698;47.690;9.132;2022-12-07T07:49:36;24.90;;;13.57;;
23060;SDS011;11698;47.690;9.132;2022-12-07T07:52:02;25.17;;;13.20;;
23060;SDS011;11698;47.690;9.132;2022-12-07T07:54:28;26.40;;;12.65;;
23060;SDS011;11698;47.690;9.132;2022-12-07T07:56:54;26.63;;;13.40;;
23060;SDS011;11698;47.690;9.132;2022-12-07T07:59:20;24.33;;;12.70;;
23060;SDS011;11698;47.690;9.132;2022-12-07T08:01:46;25.77;;;13.15;;
23060;SDS011;11698;47.690;9.132;2022-12-07T08:04:12;23.77;;;12.60;;
23060;SDS011;11698;47.690;9.132;2022-12-07T08:06:38;22.83;;;12.52;;
23060;SDS011;11698;47.690;9.132;2022-12-07T08:09:06;22.45;;;12.23;;
23060;SDS011;11698;47.690;9.132;2022-12-07T08:11:33;23.83;;;12.32;;
23060;SDS011;11698;47.690;9.132;2022-12-07T08:13:59;25.83;;;12.57;;
23060;SDS011;11698;47.690;9.132;2022-12-07T08:16:25;23.42;;;12.50;;
23060;SDS011;11698;47.690;9.132;2022-12-07T08:18:51;22.87;;;12.40;;
23060;SDS011;11698;47.690;9.132;2022-12-07T08:21:17;23.17;;;11.80;;
23060;SDS011;11698;47.690;9.132;2022-12-07T08:23:43;21.85;;;11.88;;
23060;SDS011;11698;47.690;9.132;2022-12-07T08:26:10;23.50;;;12.50;;
23060;SDS011;11698;47.690;9.132;2022-12-07T08:28:37;26.33;;;12.60;;
23060;SDS011;11698;47.690;9.132;2022-12-07T08:31:04;22.17;;;11.60;;
23060;SDS011;11698;47.690;9.132;2022-12-07T08:33:31;22.50;;;11.85;;
23060;SDS011;11698;47.690;9.132;2022-12-07T08:36:01;23.87;;;11.80;;
23060;SDS011;11698;47.690;9.132;2022-12-07T08:38:27;22.57;;;11.90;;
23060;SDS011;11698;47.690;9.132;2022-12-07T08:40:56;24.13;;;12.43;;
23060;SDS011;11698;47.690;9.132;2022-12-07T08:43:23;20.60;;;11.65;;
23060;SDS011;11698;47.690;9.132;2022-12-07T08:45:51;20.92;;;12.18;;
23060;SDS011;11698;47.690;9.132;2022-12-07T08:48:20;23.73;;;11.93;;
23060;SDS011;11698;47.690;9.132;2022-12-07T08:50:49;21.95;;;11.88;;
23060;SDS011;11698;47.690;9.132;2022-12-07T08:53:15;24.17;;;11.85;;
23060;SDS011;11698;47.690;9.132;2022-12-07T08:55:42;24.05;;;12.30;;
23060;SDS011;11698;47.690;9.132;2022-12-07T08:58:09;25.17;;;12.13;;
23060;SDS011;11698;47.690;9.132;2022-12-07T09:00:35;21.35;;;11.52;;
23060;SDS011;11698;47.690;9.132;2022-12-07T09:03:01;22.95;;;11.48;;
23060;SDS011;11698;47.690;9.132;2022-12-07T09:05:27;23.75;;;12.02;;
23060;SDS011;11698;47.690;9.132;2022-12-07T09:07:54;22.92;;;11.90;;
23060;SDS011;11698;47.690;9.132;2022-12-07T09:10:21;22.45;;;12.05;;
23060;SDS011;11698;47.690;9.132;2022-12-07T09:12:48;23.63;;;11.75;;
23060;SDS011;11698;47.690;9.132;2022-12-07T09:15:14;22.70;;;12.02;;
23060;SDS011;11698;47.690;9.132;2022-12-07T09:17:40;24.60;;;12.32;;
23060;SDS011;11698;47.690;9.132;2022-12-07T09:20:06;22.50;;;11.40;;
23060;SDS011;11698;47.690;9.132;2022-12-07T09:22:33;22.35;;;11.82;;
23060;SDS011;11698;47.690;9.132;2022-12-07T09:24:59;22.83;;;11.70;;
23060;SDS011;11698;47.690;9.132;2022-12-07T09:27:25;21.10;;;11.10;;
23060;SDS011;11698;47.690;9.132;2022-12-07T09:29:51;18.93;;;10.87;;
23060;SDS011;11698;47.690;9.132;2022-12-07T09:32:18;22.08;;;11.65;;
23060;SDS011;11698;47.690;9.132;2022-12-07T09:34:44;21.92;;;10.80;;
23060;SDS011;11698;47.690;9.132;2022-12-07T09:37:10;17.90;;;10.38;;
23060;SDS011;11698;47.690;9.132;2022-12-07T09:39:39;19.45;;;10.63;;
23060;SDS011;11698;47.690;9.132;2022-12-07T09:42:06;24.55;;;13.20;;
23060;SDS011;11698;47.690;9.132;2022-12-07T09:44:33;26.90;;;14.45;;
23060;SDS011;11698;47.690;9.132;2022-12-07T09:46:59;26.13;;;13.48;;
23060;SDS011;11698;47.690;9.132;2022-12-07T09:49:27;27.48;;;14.77;;
23060;SDS011;11698;47.690;9.132;2022-12-07T09:54:29;25.77;;;13.67;;
23060;SDS011;11698;47.690;9.132;2022-12-07T09:56:56;28.13;;;14.80;;
23060;SDS011;11698;47.690;9.132;2022-12-07T09:59:22;27.17;;;14.48;;
23060;SDS011;11698;47.690;9.132;2022-12-07T10:01:49;25.83;;;12.80;;
23060;SDS011;11698;47.690;9.132;2022-12-07T10:04:16;19.50;;;10.25;;
23060;SDS011;11698;47.690;9.132;2022-12-07T10:06:44;18.52;;;9.93;;
23060;SDS011;11698;47.690;9.132;2022-12-07T10:09:11;16.70;;;9.83;;
23060;SDS011;11698;47.690;9.132;2022-12-07T10:11:57;16.48;;;9.00;;
23060;SDS011;11698;47.690;9.132;2022-12-07T10:14:23;16.42;;;9.40;;
23060;SDS011;11698;47.690;9.132;2022-12-07T10:16:49;18.27;;;8.87;;
23060;SDS011;11698;47.690;9.132;2022-12-07T10:19:28;15.53;;;8.60;;
23060;SDS011;11698;47.690;9.132;2022-12-07T10:24:28;17.10;;;8.85;;
23060;SDS011;11698;47.690;9.132;2022-12-07T10:26:54;14.60;;;8.15;;
23060;SDS011;11698;47.690;9.132;2022-12-07T10:29:21;12.95;;;7.40;;
23060;SDS011;11698;47.690;9.132;2022-12-07T10:31:58;15.33;;;8.33;;
23060;SDS011;11698;47.690;9.132;2022-12-07T10:36:54;15.55;;;8.57;;
23060;SDS011;11698;47.690;9.132;2022-12-07T10:39:32;16.77;;;8.77;;
23060;SDS011;11698;47.690;9.132;2022-12-07T10:42:15;17.83;;;8.52;;
23060;SDS011;11698;47.690;9.132;2022-12-07T10:44:41;15.10;;;8.43;;
23060;SDS011;11698;47.690;9.132;2022-12-07T10:50:02;15.30;;;8.30;;
23060;SDS011;11698;47.690;9.132;2022-12-07T10:55:18;15.40;;;7.50;;
23060;SDS011;11698;47.690;9.132;2022-12-07T11:00:25;13.82;;;7.97;;
23060;SDS011;11698;47.690;9.132;2022-12-07T11:07:57;16.20;;;8.63;;
23060;SDS011;11698;47.690;9.132;2022-12-07T11:18:14;17.00;;;8.67;;
23060;SDS011;11698;47.690;9.132;2022-12-07T11:25:54;15.38;;;7.82;;
23060;SDS011;11698;47.690;9.132;2022-12-07T11:38:42;11.82;;;7.13;;
23060;SDS011;11698;47.690;9.132;2022-12-07T11:41:09;10.10;;;6.32;;
23060;SDS011;11698;47.690;9.132;2022-12-07T11:43:46;11.52;;;6.40;;
23060;SDS011;11698;47.690;9.132;2022-12-07T11:46:16;11.02;;;6.53;;
23060;SDS011;11698;47.690;9.132;2022-12-07T11:51:18;10.10;;;6.50;;
23060;SDS011;11698;47.690;9.132;2022-12-07T11:53:50;8.43;;;5.63;;
23060;SDS011;11698;47.690;9.132;2022-12-07T11:56:19;9.70;;;5.80;;
23060;SDS011;11698;47.690;9.132;2022-12-07T12:01:51;10.85;;;6.13;;
23060;SDS011;11698;47.690;9.132;2022-12-07T12:06:48;10.10;;;5.72;;
23060;SDS011;11698;47.690;9.132;2022-12-07T12:09:15;9.82;;;5.63;;
23060;SDS011;11698;47.690;9.132;2022-12-07T12:14:33;8.50;;;5.88;;
23060;SDS011;11698;47.690;9.132;2022-12-07T12:22:27;10.48;;;5.60;;
23060;SDS011;11698;47.690;9.132;2022-12-07T12:24:54;8.93;;;5.68;;
23060;SDS011;11698;47.690;9.132;2022-12-07T12:27:23;10.87;;;5.70;;
23060;SDS011;11698;47.690;9.132;2022-12-07T12:29:52;9.68;;;5.72;;
23060;SDS011;11698;47.690;9.132;2022-12-07T12:32:22;8.80;;;5.75;;
23060;SDS011;11698;47.690;9.132;2022-12-07T12:35:00;7.68;;;4.70;;
23060;SDS011;11698;47.690;9.132;2022-12-07T12:42:44;7.75;;;5.00;;
23060;SDS011;11698;47.690;9.132;2022-12-07T12:47:53;9.50;;;5.40;;
23060;SDS011;11698;47.690;9.132;2022-12-07T12:50:21;8.13;;;4.57;;
23060;SDS011;11698;47.690;9.132;2022-12-07T12:52:49;6.63;;;4.70;;
23060;SDS011;11698;47.690;9.132;2022-12-07T12:55:17;7.43;;;4.10;;
23060;SDS011;11698;47.690;9.132;2022-12-07T12:57:46;7.50;;;4.25;;
23060;SDS011;11698;47.690;9.132;2022-12-07T13:02:38;8.77;;;4.68;;
23060;SDS011;11698;47.690;9.132;2022-12-07T13:10:20;8.10;;;5.30;;
23060;SDS011;11698;47.690;9.132;2022-12-07T13:17:59;9.63;;;5.90;;
23060;SDS011;11698;47.690;9.132;2022-12-07T13:23:31;42.22;;;30.02;;
23060;SDS011;11698;47.690;9.132;2022-12-07T13:26:01;17.65;;;10.98;;
23060;SDS011;11698;47.690;9.132;2022-12-07T13:28:35;19.02;;;12.65;;
23060;SDS011;11698;47.690;9.132;2022-12-07T13:31:23;57.58;;;34.22;;
23060;SDS011;11698;47.690;9.132;2022-12-07T13:33:51;31.88;;;19.80;;
23060;SDS011;11698;47.690;9.132;2022-12-07T13:38:48;9.97;;;6.30;;
23060;SDS011;11698;47.690;9.132;2022-12-07T13:41:18;11.43;;;7.28;;
23060;SDS011;11698;47.690;9.132;2022-12-07T13:46:11;16.23;;;13.20;;
23060;SDS011;11698;47.690;9.132;2022-12-07T13:48:48;26.15;;;18.58;;
23060;SDS011;11698;47.690;9.132;2022-12-07T13:51:23;10.70;;;6.40;;
23060;SDS011;11698;47.690;9.132;2022-12-07T13:53:50;9.52;;;5.72;;
23060;SDS011;11698;47.690;9.132;2022-12-07T13:56:17;10.18;;;5.72;;
23060;SDS011;11698;47.690;9.132;2022-12-07T13:58:43;11.25;;;8.25;;
23060;SDS011;11698;47.690;9.132;2022-12-07T14:01:09;12.40;;;8.63;;
23060;SDS011;11698;47.690;9.132;2022-12-07T14:03:36;13.10;;;9.18;;
23060;SDS011;11698;47.690;9.132;2022-12-07T14:06:46;9.23;;;6.07;;
23060;SDS011;11698;47.690;9.132;2022-12-07T14:09:06;12.20;;;8.00;;
23060;SDS011;11698;47.690;9.132;2022-12-07T14:11:32;10.13;;;6.18;;
23060;SDS011;11698;47.690;9.132;2022-12-07T14:13:58;10.60;;;6.38;;
23060;SDS011;11698;47.690;9.132;2022-12-07T14:18:52;10.43;;;6.68;;
23060;SDS011;11698;47.690;9.132;2022-12-07T14:21:20;11.20;;;6.35;;
23060;SDS011;11698;47.690;9.132;2022-12-07T14:26:32;11.25;;;6.30;;
23060;SDS011;11698;47.690;9.132;2022-12-07T14:31:46;10.00;;;6.18;;
23060;SDS011;11698;47.690;9.132;2022-12-07T14:34:12;12.38;;;7.03;;
23060;SDS011;11698;47.690;9.132;2022-12-07T14:36:38;11.82;;;7.18;;
23060;SDS011;11698;47.690;9.132;2022-12-07T14:39:04;11.05;;;6.95;;
23060;SDS011;11698;47.690;9.132;2022-12-07T14:41:30;10.45;;;6.55;;
23060;SDS011;11698;47.690;9.132;2022-12-07T14:44:15;10.87;;;6.23;;
23060;SDS011;11698;47.690;9.132;2022-12-07T14:46:41;10.80;;;6.72;;
23060;SDS011;11698;47.690;9.132;2022-12-07T14:49:07;12.93;;;7.03;;
23060;SDS011;11698;47.690;9.132;2022-12-07T14:51:33;13.33;;;6.77;;
23060;SDS011;11698;47.690;9.132;2022-12-07T14:54:01;11.95;;;7.35;;
23060;SDS011;11698;47.690;9.132;2022-12-07T14:56:27;12.82;;;6.53;;
23060;SDS011;11698;47.690;9.132;2022-12-07T14:58:53;12.30;;;6.80;;
23060;SDS011;11698;47.690;9.132;2022-12-07T15:01:19;10.65;;;6.32;;
23060;SDS011;11698;47.690;9.132;2022-12-07T15:03:45;11.52;;;6.85;;
23060;SDS011;11698;47.690;9.132;2022-12-07T15:06:13;9.85;;;6.28;;
23060;SDS011;11698;47.690;9.132;2022-12-07T15:08:39;10.15;;;6.50;;
23060;SDS011;11698;47.690;9.132;2022-12-07T15:11:05;11.70;;;6.90;;
23060;SDS011;11698;47.690;9.132;2022-12-07T15:13:31;10.40;;;6.13;;
23060;SDS011;11698;47.690;9.132;2022-12-07T15:16:19;10.70;;;6.50;;
23060;SDS011;11698;47.690;9.132;2022-12-07T15:18:46;11.02;;;6.32;;
23060;SDS011;11698;47.690;9.132;2022-12-07T15:21:15;10.50;;;6.22;;
23060;SDS011;11698;47.690;9.132;2022-12-07T15:23:41;11.43;;;6.50;;
23060;SDS011;11698;47.690;9.132;2022-12-07T15:26:09;12.40;;;6.47;;
23060;SDS011;11698;47.690;9.132;2022-12-07T15:28:35;9.77;;;6.00;;
23060;SDS011;11698;47.690;9.132;2022-12-07T15:31:01;12.60;;;6.37;;
23060;SDS011;11698;47.690;9.132;2022-12-07T15:33:27;12.50;;;6.60;;
23060;SDS011;11698;47.690;9.132;2022-12-07T15:35:53;12.68;;;5.85;;
23060;SDS011;11698;47.690;9.132;2022-12-07T15:38:19;13.07;;;6.25;;
23060;SDS011;11698;47.690;9.132;2022-12-07T15:40:48;14.65;;;6.35;;
23060;SDS011;11698;47.690;9.132;2022-12-07T15:43:14;11.45;;;6.45;;
23060;SDS011;11698;47.690;9.132;2022-12-07T15:45:59;13.50;;;6.88;;
23060;SDS011;11698;47.690;9.132;2022-12-07T15:48:25;12.73;;;7.07;;
23060;SDS011;11698;47.690;9.132;2022-12-07T15:50:51;15.23;;;8.10;;
23060;SDS011;11698;47.690;9.132;2022-12-07T15:53:17;14.63;;;8.07;;
23060;SDS011;11698;47.690;9.132;2022-12-07T15:55:43;16.47;;;9.03;;
23060;SDS011;11698;47.690;9.132;2022-12-07T15:58:09;14.50;;;8.00;;
23060;SDS011;11698;47.690;9.132;2022-12-07T16:00:35;13.77;;;8.55;;
23060;SDS011;11698;47.690;9.132;2022-12-07T16:03:01;16.40;;;8.40;;
23060;SDS011;11698;47.690;9.132;2022-12-07T16:05:27;16.38;;;8.20;;
23060;SDS011;11698;47.690;9.132;2022-12-07T16:07:53;15.18;;;8.32;;
23060;SDS011;11698;47.690;9.132;2022-12-07T16:10:19;16.40;;;8.50;;
23060;SDS011;11698;47.690;9.132;2022-12-07T16:12:45;18.83;;;8.60;;
23060;SDS011;11698;47.690;9.132;2022-12-07T16:15:11;15.88;;;8.43;;
23060;SDS011;11698;47.690;9.132;2022-12-07T16:17:37;17.55;;;7.90;;
23060;SDS011;11698;47.690;9.132;2022-12-07T16:20:03;17.73;;;8.77;;
23060;SDS011;11698;47.690;9.132;2022-12-07T16:22:29;16.77;;;8.25;;
23060;SDS011;11698;47.690;9.132;2022-12-07T16:24:56;15.90;;;8.70;;
23060;SDS011;11698;47.690;9.132;2022-12-07T16:27:22;20.40;;;9.00;;
23060;SDS011;11698;47.690;9.132;2022-12-07T16:29:48;18.35;;;8.70;;
23060;SDS011;11698;47.690;9.132;2022-12-07T16:32:14;17.08;;;9.63;;
23060;SDS011;11698;47.690;9.132;2022-12-07T16:34:40;19.10;;;10.20;;
23060;SDS011;11698;47.690;9.132;2022-12-07T16:37:06;16.88;;;9.88;;
23060;SDS011;11698;47.690;9.132;2022-12-07T16:39:32;19.67;;;11.45;;
23060;SDS011;11698;47.690;9.132;2022-12-07T16:41:59;27.40;;;14.38;;
23060;SDS011;11698;47.690;9.132;2022-12-07T16:44:25;27.92;;;13.57;;